Time;durP1;ratioP1;P1;durP2;ratioP2;P2;SDS_P1;SDS_P2;PMS_P1;PMS_P2;Temp;Humidity;BMP_temperature;BMP_pressure;BME280_temperature;BME280_humidity;BME280_pressure;Samples;Min_cycle;Max_cycle;Signal;HPM_P1;HPM_P2
2023/05/10 00:01:48;;;;;;;4.30;3.07;;;18.00;27.00;;;;;;5092089;28;20552;-51
2023/05/10 00:04:14;;;;;;;3.87;2.90;;;18.10;27.10;;;;;;5092250;28;20187;-51
2023/05/10 00:06:39;;;;;;;5.33;2.60;;;18.00;27.00;;;;;;5092097;28;20238;-52
2023/05/10 00:09:06;;;;;;;2.77;2.47;;;18.00;27.00;;;;;;5092210;28;20212;-51
2023/05/10 00:11:32;;;;;;;3.10;2.80;;;18.00;27.10;;;;;;5092327;28;20195;-51
2023/05/10 00:13:58;;;;;;;3.17;2.27;;;18.00;27.20;;;;;;5092182;28;20222;-52
2023/05/10 00:16:23;;;;;;;3.83;2.27;;;18.00;27.20;;;;;;5092154;28;20594;-51
2023/05/10 00:18:49;;;;;;;4.17;3.20;;;17.90;27.20;;;;;;5092123;28;20172;-51
2023/05/10 00:21:15;;;;;;;4.63;3.30;;;18.00;27.20;;;;;;5092216;28;20192;-51
2023/05/10 00:23:40;;;;;;;3.00;2.70;;;18.00;27.20;;;;;;5091903;28;20176;-51
2023/05/10 00:26:06;;;;;;;4.63;2.77;;;17.90;27.20;;;;;;5091991;28;20246;-51
2023/05/10 00:28:32;;;;;;;3.57;3.10;;;17.90;27.40;;;;;;5091994;28;20300;-52
2023/05/10 00:30:58;;;;;;;3.87;3.30;;;17.90;27.40;;;;;;5091950;28;20203;-51
2023/05/10 00:33:23;;;;;;;4.43;2.43;;;17.90;27.30;;;;;;5091937;28;20588;-51
2023/05/10 00:35:49;;;;;;;3.73;2.80;;;17.90;27.40;;;;;;5091967;28;20176;-51
2023/05/10 00:38:15;;;;;;;3.17;2.50;;;17.90;27.40;;;;;;5091860;28;20578;-51
2023/05/10 00:40:41;;;;;;;4.00;3.20;;;17.80;27.20;;;;;;5092048;28;20238;-51
2023/05/10 00:43:07;;;;;;;4.38;3.17;;;17.80;27.20;;;;;;5091921;28;20176;-51
2023/05/10 00:45:35;;;;;;;2.53;2.33;;;17.80;27.30;;;;;;5091768;28;20268;-51
2023/05/10 00:48:04;;;;;;;3.25;2.35;;;17.80;27.30;;;;;;5091749;28;20918;-51
2023/05/10 00:50:32;;;;;;;3.67;2.42;;;17.80;27.30;;;;;;5092031;28;20223;-51
2023/05/10 00:52:59;;;;;;;5.38;2.35;;;17.80;27.20;;;;;;5091640;28;20207;-51
2023/05/10 00:55:25;;;;;;;4.88;2.60;;;17.70;27.30;;;;;;5092090;28;20207;-51
2023/05/10 00:57:52;;;;;;;5.13;2.60;;;17.70;27.40;;;;;;5091745;28;20174;-51
2023/05/10 01:00:18;;;;;;;5.85;3.40;;;17.70;27.30;;;;;;5095726;28;20211;-51
2023/05/10 01:02:47;;;;;;;3.60;2.65;;;17.70;27.40;;;;;;5095408;28;20769;-51
2023/05/10 01:05:13;;;;;;;4.95;4.10;;;17.60;27.30;;;;;;5095467;28;20208;-51
2023/05/10 01:07:39;;;;;;;4.70;3.40;;;17.60;27.20;;;;;;5095407;28;20163;-51
2023/05/10 01:10:09;;;;;;;2.58;2.30;;;17.60;28.00;;;;;;5095308;28;20207;-51
2023/05/10 01:12:38;;;;;;;4.20;2.40;;;17.60;27.30;;;;;;5095521;28;20203;-51
2023/05/10 01:15:06;;;;;;;2.70;2.30;;;17.60;27.30;;;;;;5095346;28;20258;-51
2023/05/10 01:17:33;;;;;;;3.95;2.80;;;17.50;27.40;;;;;;5095246;28;20176;-51
2023/05/10 01:19:58;;;;;;;2.38;2.15;;;17.40;27.40;;;;;;5095142;28;20648;-51
2023/05/10 01:22:39;;;;;;;3.77;3.13;;;17.40;27.40;;;;;;5095270;28;20203;-51
2023/05/10 01:25:25;;;;;;;2.85;2.58;;;17.50;27.50;;;;;;5095078;28;20449;-51
2023/05/10 01:28:24;;;;;;;3.80;2.65;;;17.40;27.50;;;;;;5095209;28;20260;-51
2023/05/10 01:31:23;;;;;;;3.30;2.60;;;17.40;27.50;;;;;;5094815;28;20203;-51
2023/05/10 01:34:02;;;;;;;2.97;2.53;;;17.30;27.50;;;;;;5094784;28;20696;-51
2023/05/10 01:36:55;;;;;;;4.05;3.35;;;17.20;27.60;;;;;;5095072;28;20183;-51
2023/05/10 01:39:25;;;;;;;3.95;2.70;;;17.20;27.70;;;;;;5094933;28;20164;-51
2023/05/10 01:41:54;;;;;;;3.08;2.78;;;17.20;27.80;;;;;;5094892;28;20192;-51
2023/05/10 01:44:46;;;;;;;3.08;2.50;;;17.20;27.90;;;;;;5094898;28;20259;-51
2023/05/10 01:47:17;;;;;;;4.57;2.75;;;17.20;28.00;;;;;;5094757;28;20179;-51
2023/05/10 01:49:55;;;;;;;3.20;2.40;;;17.10;27.90;;;;;;5094655;28;20180;-51
2023/05/10 01:52:43;;;;;;;2.80;2.08;;;17.10;28.00;;;;;;5094441;28;20199;-51
2023/05/10 01:55:15;;;;;;;4.35;2.90;;;17.20;28.00;;;;;;5094884;28;20156;-51
2023/05/10 01:57:43;;;;;;;2.60;2.08;;;17.10;28.10;;;;;;5094527;28;20168;-51
2023/05/10 02:00:11;;;;;;;3.53;2.30;;;17.10;28.10;;;;;;5094641;28;20184;-51
2023/05/10 02:02:39;;;;;;;2.42;1.92;;;17.00;28.10;;;;;;5094345;28;20218;-51
2023/05/10 02:05:09;;;;;;;3.33;2.75;;;17.00;28.00;;;;;;5094314;28;20207;-51
2023/05/10 02:07:36;;;;;;;3.53;2.80;;;17.00;28.30;;;;;;5094697;28;20202;-51
2023/05/10 02:10:09;;;;;;;4.07;2.75;;;16.90;28.20;;;;;;5092951;28;20532;-51
2023/05/10 02:12:39;;;;;;;3.40;3.05;;;16.90;28.40;;;;;;5094224;28;20663;-51
2023/05/10 02:15:06;;;;;;;3.17;2.88;;;16.90;28.40;;;;;;5094162;28;20666;-51
2023/05/10 02:17:34;;;;;;;3.17;2.60;;;16.80;28.60;;;;;;5094153;28;20301;-51
2023/05/10 02:20:03;;;;;;;3.35;3.03;;;16.80;28.70;;;;;;5094428;28;20266;-51
2023/05/10 02:22:29;;;;;;;2.95;2.45;;;16.80;28.90;;;;;;5093770;28;20172;-51
2023/05/10 02:24:57;;;;;;;2.58;2.00;;;16.70;28.90;;;;;;5094166;28;20211;-51
2023/05/10 02:27:25;;;;;;;3.20;2.90;;;16.70;28.80;;;;;;5094117;28;20191;-51
2023/05/10 02:29:52;;;;;;;6.68;3.50;;;16.70;29.10;;;;;;5094188;28;20179;-51
2023/05/10 02:32:18;;;;;;;2.95;2.50;;;16.70;29.00;;;;;;5093499;28;20588;-51
2023/05/10 02:34:46;;;;;;;2.55;2.10;;;16.70;29.20;;;;;;5093732;28;20183;-51
2023/05/10 02:37:18;;;;;;;4.03;2.30;;;16.60;29.00;;;;;;5093665;28;20293;-51
2023/05/10 02:39:45;;;;;;;2.70;2.10;;;16.60;29.20;;;;;;5093881;28;20221;-51
2023/05/10 02:42:19;;;;;;;3.10;2.55;;;16.60;29.20;;;;;;5093625;28;20223;-51
2023/05/10 02:44:50;;;;;;;5.35;2.92;;;16.60;29.20;;;;;;5093468;28;20225;-51
2023/05/10 02:47:17;;;;;;;6.57;2.35;;;16.60;29.20;;;;;;5093881;28;20187;-51
2023/05/10 02:49:43;;;;;;;3.58;2.58;;;16.60;29.50;;;;;;5093457;28;20635;-51
2023/05/10 02:52:10;;;;;;;3.33;2.70;;;16.50;29.60;;;;;;5093528;28;20198;-51
2023/05/10 02:54:44;;;;;;;4.43;3.38;;;16.50;29.60;;;;;;5093507;28;20395;-51
2023/05/10 02:57:15;;;;;;;7.10;2.90;;;16.50;29.40;;;;;;5093446;28;20207;-50
2023/05/10 02:59:42;;;;;;;5.75;3.25;;;16.50;29.60;;;;;;5093378;28;20178;-50
2023/05/10 03:02:09;;;;;;;5.78;3.90;;;16.50;29.50;;;;;;5093023;28;20203;-50
2023/05/10 03:04:35;;;;;;;3.35;2.60;;;16.50;29.60;;;;;;5093380;28;20168;-53
2023/05/10 03:07:01;;;;;;;5.30;2.70;;;16.40;30.00;;;;;;5093512;28;20179;-50
2023/05/10 03:09:27;;;;;;;4.40;2.72;;;16.40;29.80;;;;;;5093149;28;20176;-50
2023/05/10 03:12:24;;;;;;;7.47;2.65;;;16.40;29.70;;;;;;5092860;28;20197;-52
2023/05/10 03:15:20;;;;;;;4.55;2.90;;;16.50;29.90;;;;;;5093057;28;20165;-49
2023/05/10 03:18:06;;;;;;;4.82;3.15;;;16.50;30.10;;;;;;5093288;28;20168;-51
2023/05/10 03:20:42;;;;;;;3.42;3.13;;;16.40;30.00;;;;;;5091559;28;20219;-50
2023/05/10 03:23:12;;;;;;;4.35;2.28;;;16.40;30.00;;;;;;5092488;28;20179;-52
2023/05/10 03:25:39;;;;;;;3.97;2.72;;;16.40;30.00;;;;;;5093015;28;20210;-51
2023/05/10 03:28:06;;;;;;;4.13;2.33;;;16.40;30.00;;;;;;5092804;28;20644;-49
2023/05/10 03:30:33;;;;;;;3.72;2.97;;;16.40;30.00;;;;;;5092633;28;20204;-49
2023/05/10 03:33:06;;;;;;;3.25;2.63;;;16.40;30.10;;;;;;5092495;28;20232;-51
2023/05/10 03:35:31;;;;;;;3.17;2.45;;;16.30;30.30;;;;;;5092711;28;20183;-51
2023/05/10 03:37:57;;;;;;;3.17;2.87;;;16.30;30.50;;;;;;5092647;28;20593;-49
2023/05/10 03:40:24;;;;;;;3.13;2.83;;;16.30;30.60;;;;;;5092878;28;20437;-51
2023/05/10 03:42:50;;;;;;;3.58;2.63;;;16.20;30.70;;;;;;5092681;28;20233;-49
2023/05/10 03:45:16;;;;;;;6.07;4.07;;;16.20;30.80;;;;;;5092727;28;20741;-52
2023/05/10 03:47:41;;;;;;;10.83;2.50;;;16.20;30.80;;;;;;5092544;28;20700;-52
2023/05/10 03:50:07;;;;;;;4.13;2.33;;;16.20;30.90;;;;;;5092696;28;20766;-49
2023/05/10 03:52:33;;;;;;;3.13;2.33;;;16.20;30.80;;;;;;5091012;28;20195;-51
2023/05/10 03:54:59;;;;;;;8.10;3.40;;;16.20;30.80;;;;;;5092488;28;20644;-51
2023/05/10 03:57:25;;;;;;;6.60;2.67;;;16.20;30.70;;;;;;5092497;28;20180;-49
2023/05/10 03:59:50;;;;;;;2.90;2.53;;;16.20;30.70;;;;;;5092451;28;20188;-51
2023/05/10 04:02:16;;;;;;;3.73;2.70;;;16.20;30.70;;;;;;5092101;28;20188;-51
2023/05/10 04:04:42;;;;;;;2.90;2.03;;;16.20;30.90;;;;;;5092370;28;20195;-51
2023/05/10 04:07:07;;;;;;;5.63;2.40;;;16.30;30.90;;;;;;5092569;28;20172;-50
2023/05/10 04:09:33;;;;;;;2.70;2.37;;;16.30;30.80;;;;;;5092504;28;20651;-50
2023/05/10 04:12:02;;;;;;;6.70;4.03;;;16.40;30.60;;;;;;5092180;28;20188;-50
2023/05/10 04:14:28;;;;;;;3.45;2.72;;;16.40;30.60;;;;;;5092420;28;20536;-50
2023/05/10 04:16:53;;;;;;;8.53;3.30;;;16.50;30.70;;;;;;5092309;28;20179;-52
2023/05/10 04:19:19;;;;;;;3.33;2.70;;;16.50;30.70;;;;;;5092303;28;20402;-52
2023/05/10 04:21:45;;;;;;;7.30;3.20;;;16.60;30.40;;;;;;5092465;28;20545;-50
2023/05/10 04:24:10;;;;;;;7.80;3.00;;;16.60;30.60;;;;;;5092190;28;20175;-50
2023/05/10 04:26:36;;;;;;;2.30;2.00;;;16.70;30.60;;;;;;5092226;28;20678;-52
2023/05/10 04:29:02;;;;;;;3.83;3.30;;;16.70;30.30;;;;;;5092429;28;20217;-49
2023/05/10 04:31:28;;;;;;;2.97;2.10;;;16.80;30.40;;;;;;5091738;28;20254;-49
2023/05/10 04:33:53;;;;;;;2.70;2.27;;;16.80;30.50;;;;;;5093443;28;20168;-49
2023/05/10 04:36:19;;;;;;;3.20;2.80;;;16.90;30.40;;;;;;5096496;28;20179;-50
2023/05/10 04:38:45;;;;;;;3.17;2.87;;;16.90;30.40;;;;;;5096388;28;20560;-49
2023/05/10 04:41:11;;;;;;;2.67;2.00;;;17.00;30.50;;;;;;5095979;28;20188;-51
2023/05/10 04:43:37;;;;;;;3.63;2.42;;;17.00;30.30;;;;;;5095727;28;20540;-49
2023/05/10 04:46:04;;;;;;;3.95;2.45;;;17.00;30.20;;;;;;5096130;28;20203;-49
2023/05/10 04:48:30;;;;;;;3.40;2.38;;;17.00;30.40;;;;;;5095984;28;20168;-51
2023/05/10 04:50:56;;;;;;;3.03;2.40;;;17.00;30.30;;;;;;5095853;28;20196;-51
2023/05/10 04:53:22;;;;;;;3.83;2.60;;;17.00;30.50;;;;;;5095828;28;20406;-49
2023/05/10 04:55:48;;;;;;;3.35;2.55;;;17.10;30.50;;;;;;5095837;28;20405;-51
2023/05/10 04:58:14;;;;;;;3.25;2.92;;;17.20;30.50;;;;;;5095752;28;20206;-52
2023/05/10 05:00:40;;;;;;;3.80;2.70;;;17.20;30.40;;;;;;5095620;28;20274;-49
2023/05/10 05:03:06;;;;;;;4.70;3.10;;;17.30;30.40;;;;;;5095495;28;20171;-49
2023/05/10 05:05:31;;;;;;;7.87;2.87;;;17.30;30.20;;;;;;5095514;28;20457;-52
2023/05/10 05:07:57;;;;;;;3.10;2.47;;;17.50;30.20;;;;;;5095532;28;20205;-52
2023/05/10 05:10:23;;;;;;;2.90;2.47;;;17.50;30.20;;;;;;5095426;28;20237;-49
2023/05/10 05:12:48;;;;;;;4.40;2.33;;;17.50;30.10;;;;;;5095258;28;20191;-51
2023/05/10 05:15:16;;;;;;;6.67;2.60;;;17.60;30.10;;;;;;5095275;28;20168;-51
2023/05/10 05:17:42;;;;;;;5.28;2.65;;;17.60;30.00;;;;;;5095238;28;20524;-50
2023/05/10 05:20:08;;;;;;;4.35;2.95;;;17.60;30.00;;;;;;5095354;28;20206;-50
2023/05/10 05:22:36;;;;;;;2.80;2.15;;;17.70;30.00;;;;;;5095090;28;20761;-52
2023/05/10 05:25:03;;;;;;;5.03;2.20;;;17.90;30.00;;;;;;5095149;28;20283;-49
2023/05/10 05:27:29;;;;;;;4.13;3.72;;;18.00;29.90;;;;;;5095413;28;20179;-49
2023/05/10 05:29:58;;;;;;;2.92;2.70;;;18.10;29.70;;;;;;5095204;28;20510;-52
2023/05/10 05:32:24;;;;;;;3.40;2.55;;;18.20;29.80;;;;;;5094714;28;20273;-49
2023/05/10 05:34:51;;;;;;;5.07;1.90;;;18.30;29.60;;;;;;5095040;28;20175;-50
2023/05/10 05:37:21;;;;;;;3.45;2.38;;;18.40;29.20;;;;;;5094884;28;20219;-52
2023/05/10 05:39:47;;;;;;;4.22;2.38;;;18.50;29.30;;;;;;5094871;28;20169;-50
2023/05/10 05:42:13;;;;;;;6.60;2.55;;;18.50;29.40;;;;;;5094654;28;20188;-50
2023/05/10 05:44:39;;;;;;;3.03;2.35;;;18.60;29.30;;;;;;5094240;28;20180;-52
2023/05/10 05:47:06;;;;;;;3.60;2.60;;;18.70;29.30;;;;;;5094918;28;20635;-50
2023/05/10 05:49:32;;;;;;;3.95;2.90;;;18.80;29.30;;;;;;5094865;28;20266;-52
2023/05/10 05:52:04;;;;;;;5.07;2.63;;;18.90;28.80;;;;;;5094480;28;20211;-52
2023/05/10 05:54:31;;;;;;;3.15;2.60;;;19.00;28.90;;;;;;5094559;28;20532;-50
2023/05/10 05:56:58;;;;;;;3.63;2.70;;;18.90;28.90;;;;;;5094829;28;20199;-52
2023/05/10 05:59:24;;;;;;;4.05;2.75;;;19.00;29.10;;;;;;5094666;28;20549;-50
2023/05/10 06:01:50;;;;;;;5.13;3.10;;;19.10;28.80;;;;;;5094200;28;20686;-50
2023/05/10 06:04:16;;;;;;;5.90;3.10;;;19.30;28.80;;;;;;5094514;28;20188;-50
2023/05/10 06:06:42;;;;;;;3.85;2.28;;;19.30;28.00;;;;;;5094383;28;20207;-52
2023/05/10 06:09:09;;;;;;;2.58;2.30;;;19.20;28.80;;;;;;5094266;28;20278;-49
2023/05/10 06:11:35;;;;;;;4.07;2.70;;;19.30;28.50;;;;;;5094071;28;20555;-49
2023/05/10 06:14:03;;;;;;;4.60;3.15;;;19.40;28.50;;;;;;5094039;28;20174;-52
2023/05/10 06:16:29;;;;;;;3.40;2.47;;;19.50;28.10;;;;;;5094121;28;20183;-51
2023/05/10 06:18:55;;;;;;;6.53;2.83;;;19.60;28.20;;;;;;5094475;28;20172;-49
2023/05/10 06:21:21;;;;;;;5.40;3.10;;;19.80;28.40;;;;;;5093998;28;20219;-49
2023/05/10 06:23:46;;;;;;;3.70;3.20;;;19.80;27.70;;;;;;5093889;28;20414;-52
2023/05/10 06:26:13;;;;;;;3.60;3.00;;;19.90;27.20;;;;;;5094171;28;20532;-50
2023/05/10 06:28:39;;;;;;;9.93;2.78;;;19.90;28.00;;;;;;5094098;28;20168;-50
2023/05/10 06:31:06;;;;;;;5.05;3.22;;;20.10;27.90;;;;;;5093738;28;20397;-52
2023/05/10 06:33:31;;;;;;;4.85;2.28;;;20.30;28.00;;;;;;5093801;28;20527;-51
2023/05/10 06:35:57;;;;;;;4.10;2.90;;;20.30;26.90;;;;;;5093774;28;20264;-50
2023/05/10 06:38:23;;;;;;;3.10;2.80;;;20.40;27.00;;;;;;5093837;28;20182;-53
2023/05/10 06:40:49;;;;;;;2.90;2.60;;;20.40;27.30;;;;;;5093531;28;20198;-52
2023/05/10 06:43:15;;;;;;;3.13;2.83;;;20.50;27.50;;;;;;5093456;28;20410;-50
2023/05/10 06:45:41;;;;;;;4.47;2.93;;;20.70;27.40;;;;;;5093568;28;20192;-52
2023/05/10 06:48:07;;;;;;;3.20;2.90;;;20.80;26.50;;;;;;5092624;28;20402;-50
2023/05/10 06:50:33;;;;;;;5.25;3.55;;;20.70;26.30;;;;;;5093231;28;20424;-52
2023/05/10 06:52:59;;;;;;;3.65;2.70;;;20.80;26.90;;;;;;5091639;28;20187;-52
2023/05/10 06:55:26;;;;;;;6.05;3.20;;;20.70;26.10;;;;;;5092966;28;20179;-50
2023/05/10 06:57:52;;;;;;;8.07;3.60;;;20.60;27.00;;;;;;5092524;28;20176;-52
2023/05/10 07:00:19;;;;;;;3.28;2.97;;;20.70;27.10;;;;;;5092987;28;20179;-49
2023/05/10 07:02:44;;;;;;;3.25;2.55;;;20.70;26.60;;;;;;5093206;28;20175;-50
2023/05/10 07:05:11;;;;;;;7.43;3.63;;;20.90;26.80;;;;;;5093268;28;20241;-52
2023/05/10 07:07:37;;;;;;;4.30;3.55;;;21.00;26.30;;;;;;5093021;28;20406;-49
2023/05/10 07:10:03;;;;;;;5.30;3.13;;;21.00;26.20;;;;;;5091619;28;20194;-52
2023/05/10 07:12:28;;;;;;;4.00;2.83;;;21.10;26.30;;;;;;5092830;28;20187;-52
2023/05/10 07:14:54;;;;;;;3.33;2.93;;;21.20;26.30;;;;;;5093235;28;20437;-49
2023/05/10 07:17:20;;;;;;;3.90;2.63;;;21.30;26.50;;;;;;5093287;28;20183;-49
2023/05/10 07:19:46;;;;;;;4.40;3.90;;;21.40;26.60;;;;;;5093055;28;20251;-52
2023/05/10 07:22:12;;;;;;;6.07;3.00;;;21.50;26.10;;;;;;5092996;28;20655;-50
2023/05/10 07:24:38;;;;;;;3.77;2.90;;;21.70;25.80;;;;;;5092751;28;20235;-50
2023/05/10 07:27:04;;;;;;;3.50;2.85;;;21.70;25.60;;;;;;5092764;28;20457;-52
2023/05/10 07:29:30;;;;;;;4.00;3.60;;;21.70;26.00;;;;;;5092708;28;20581;-51
2023/05/10 07:31:56;;;;;;;4.93;3.10;;;21.70;25.60;;;;;;5082783;28;21054;-49
2023/05/10 07:34:21;;;;;;;4.43;3.58;;;21.80;25.80;;;;;;5072628;28;20426;-51
2023/05/10 07:36:47;;;;;;;3.07;2.77;;;21.90;26.00;;;;;;5072134;28;20213;-49
2023/05/10 07:39:13;;;;;;;3.83;3.37;;;22.00;25.70;;;;;;5069040;28;20180;-51
2023/05/10 07:41:39;;;;;;;5.53;3.73;;;22.10;25.10;;;;;;5071812;28;20207;-49
2023/05/10 07:44:06;;;;;;;4.30;3.07;;;22.10;25.60;;;;;;5072188;28;20577;-49
2023/05/10 07:46:31;;;;;;;4.00;2.97;;;22.20;25.50;;;;;;5072544;28;20489;-52
2023/05/10 07:48:57;;;;;;;4.20;3.80;;;22.30;25.20;;;;;;5071881;28;20441;-49
2023/05/10 07:51:23;;;;;;;3.53;2.87;;;22.30;25.30;;;;;;5075804;28;20192;-51
2023/05/10 07:53:49;;;;;;;3.57;2.80;;;22.40;25.00;;;;;;5091316;28;20799;-49
2023/05/10 07:56:27;;;;;;;5.70;3.67;;;22.40;24.90;;;;;;5090333;28;20199;-49
2023/05/10 08:11:13;;;;;;;13.50;6.27;;;22.40;24.40;;;;;;5129735;27;21070;-54
2023/05/10 08:13:38;;;;;;;5.13;3.97;;;23.20;25.00;;;;;;5130158;28;20401;-53
2023/05/10 08:16:04;;;;;;;6.50;3.27;;;23.20;24.30;;;;;;5126665;28;20246;-55
2023/05/10 08:18:30;;;;;;;5.67;2.97;;;23.20;24.50;;;;;;5130176;27;20587;-55
2023/05/10 08:20:56;;;;;;;4.83;3.93;;;23.30;24.10;;;;;;5130675;27;20940;-54
2023/05/10 08:23:22;;;;;;;3.87;3.47;;;23.30;24.30;;;;;;5130571;27;20163;-54
2023/05/10 08:25:47;;;;;;;3.60;3.00;;;23.30;24.30;;;;;;5130328;27;20254;-54
2023/05/10 08:28:13;;;;;;;4.57;3.23;;;23.30;24.40;;;;;;5129998;27;20632;-53
2023/05/10 08:30:39;;;;;;;3.33;3.03;;;23.40;24.00;;;;;;5129936;27;20187;-55
2023/05/10 08:33:07;;;;;;;3.33;2.83;;;23.40;24.00;;;;;;5130718;27;20238;-54
2023/05/10 08:35:35;;;;;;;4.50;3.20;;;23.60;24.20;;;;;;5129449;27;20170;-55
2023/05/10 08:38:01;;;;;;;5.17;3.43;;;23.70;24.20;;;;;;5130339;27;20425;-54
2023/05/10 08:40:42;;;;;;;5.30;3.00;;;23.80;24.10;;;;;;5130368;28;20936;-56
2023/05/10 08:43:10;;;;;;;3.93;3.33;;;23.80;23.40;;;;;;5129045;27;20147;-55
2023/05/10 08:45:40;;;;;;;6.37;2.83;;;23.70;24.30;;;;;;5128567;27;20409;-54
2023/05/10 08:48:07;;;;;;;5.73;3.47;;;23.90;25.50;;;;;;5127126;28;20925;-52
2023/05/10 08:50:36;;;;;;;6.53;3.60;;;24.10;23.90;;;;;;5128927;27;20470;-54
2023/05/10 08:53:12;;;;;;;5.50;3.97;;;24.10;23.50;;;;;;5128865;27;20428;-52
2023/05/10 08:55:38;;;;;;;4.23;3.23;;;24.10;24.10;;;;;;5128769;27;20472;-54
2023/05/10 08:58:06;;;;;;;6.07;3.63;;;24.20;24.40;;;;;;5127692;28;20553;-53
2023/05/10 09:00:32;;;;;;;3.63;3.30;;;24.30;24.10;;;;;;5128768;27;20455;-51
2023/05/10 09:02:59;;;;;;;3.43;3.00;;;24.20;23.50;;;;;;5127891;28;20440;-54
2023/05/10 09:05:25;;;;;;;4.10;3.70;;;24.10;23.50;;;;;;5128844;27;21218;-54
2023/05/10 09:07:51;;;;;;;7.77;4.07;;;24.20;23.60;;;;;;5129190;27;20400;-52
2023/05/10 09:10:17;;;;;;;4.63;3.10;;;24.30;23.90;;;;;;5125655;27;20447;-56
2023/05/10 09:12:45;;;;;;;5.97;4.07;;;24.40;23.60;;;;;;5114963;28;20420;-53
2023/05/10 09:15:11;;;;;;;4.77;3.40;;;24.30;24.00;;;;;;5115106;27;20386;-52
2023/05/10 09:17:38;;;;;;;4.07;3.77;;;24.40;23.80;;;;;;5115128;28;20413;-54
2023/05/10 09:20:07;;;;;;;6.43;3.63;;;24.50;23.60;;;;;;5114829;28;20445;-53
2023/05/10 09:22:34;;;;;;;3.87;3.47;;;24.40;22.90;;;;;;5114937;28;20409;-51
2023/05/10 09:25:06;;;;;;;4.23;3.43;;;24.40;23.60;;;;;;5114423;28;20407;-55
2023/05/10 09:27:33;;;;;;;4.57;4.00;;;24.60;23.10;;;;;;5114534;28;20462;-54
2023/05/10 09:29:59;;;;;;;4.60;3.77;;;24.60;23.60;;;;;;5114777;28;20820;-54
2023/05/10 09:32:43;;;;;;;4.20;3.80;;;24.70;24.00;;;;;;5114733;28;20401;-53
2023/05/10 09:35:17;;;;;;;4.97;3.23;;;24.90;23.40;;;;;;5114487;28;20397;-54
2023/05/10 09:37:48;;;;;;;5.50;3.53;;;25.00;23.00;;;;;;5114688;28;20404;-55
2023/05/10 09:40:16;;;;;;;7.33;3.80;;;25.00;23.70;;;;;;5114327;28;20618;-53
2023/05/10 09:43:02;;;;;;;4.13;3.30;;;25.10;23.60;;;;;;5114487;28;20906;-54
2023/05/10 09:45:32;;;;;;;5.47;3.70;;;25.20;22.80;;;;;;5114303;28;20400;-54
2023/05/10 09:47:59;;;;;;;6.10;3.70;;;25.20;23.00;;;;;;5114832;28;20405;-54
2023/05/10 09:50:25;;;;;;;3.57;2.80;;;25.30;23.70;;;;;;5113084;28;20421;-54
2023/05/10 09:52:59;;;;;;;6.10;3.40;;;25.30;24.10;;;;;;5114589;28;20450;-52
2023/05/10 09:55:38;;;;;;;4.27;3.30;;;25.30;23.00;;;;;;5114044;28;20908;-54
2023/05/10 09:58:04;;;;;;;5.37;3.97;;;25.40;23.20;;;;;;5114454;28;20480;-52
2023/05/10 10:00:36;;;;;;;4.33;3.93;;;25.60;22.70;;;;;;5113965;28;20479;-51
2023/05/10 10:03:03;;;;;;;6.60;4.00;;;25.60;22.00;;;;;;5114288;28;20424;-52
2023/05/10 10:05:34;;;;;;;4.80;4.07;;;25.60;22.70;;;;;;5111929;28;20398;-51
2023/05/10 10:08:02;;;;;;;3.90;3.50;;;25.60;22.80;;;;;;5114162;27;20397;-54
2023/05/10 10:10:28;;;;;;;9.00;4.03;;;25.70;22.50;;;;;;5113110;28;20994;-53
2023/05/10 10:12:55;;;;;;;5.60;3.83;;;25.80;22.10;;;;;;5112422;28;20401;-52
2023/05/10 10:15:22;;;;;;;8.80;4.07;;;25.90;22.00;;;;;;5110704;28;20510;-55
2023/05/10 10:17:49;;;;;;;3.77;3.30;;;26.00;22.00;;;;;;5111882;28;20757;-51
2023/05/10 10:20:16;;;;;;;4.80;4.00;;;26.10;22.90;;;;;;5109986;28;20791;-55
2023/05/10 10:22:45;;;;;;;4.80;4.20;;;26.20;22.10;;;;;;5110925;28;20514;-51
2023/05/10 10:25:19;;;;;;;3.80;3.07;;;26.30;22.20;;;;;;5113528;28;20405;-53
2023/05/10 10:27:47;;;;;;;5.43;3.87;;;26.30;21.90;;;;;;5116136;27;20408;-52
2023/05/10 10:30:27;;;;;;;5.07;4.00;;;26.30;21.30;;;;;;5133658;27;20427;-55
2023/05/10 10:33:51;;;;;;;4.40;4.00;;;26.20;21.20;;;;;;5134000;27;20377;-52
2023/05/10 10:36:17;;;;;;;6.40;4.20;;;26.30;21.90;;;;;;5134513;27;20392;-54
2023/05/10 10:38:46;;;;;;;6.43;4.50;;;26.20;21.50;;;;;;5134134;27;20396;-52
2023/05/10 10:41:27;;;;;;;5.67;3.50;;;26.30;21.70;;;;;;5133694;27;20420;-54
2023/05/10 10:44:25;;;;;;;146.37;134.27;;;26.20;21.80;;;;;;5133548;27;20388;-53
2023/05/10 10:47:01;;;;;;;7.10;6.47;;;26.10;22.40;;;;;;5133992;27;20402;-54
2023/05/10 10:49:27;;;;;;;6.73;6.13;;;26.10;23.10;;;;;;5133389;27;20507;-51
2023/05/10 10:52:22;;;;;;;5.03;4.43;;;26.10;22.50;;;;;;5133830;27;20435;-52
2023/05/10 10:54:52;;;;;;;5.10;4.60;;;26.10;22.10;;;;;;5133422;27;20895;-54
2023/05/10 10:57:21;;;;;;;5.20;3.53;;;26.00;22.00;;;;;;5132385;27;20773;-52
2023/05/10 10:59:47;;;;;;;5.00;4.47;;;25.90;21.80;;;;;;5132497;27;20443;-55
2023/05/10 11:02:33;;;;;;;8.93;6.00;;;25.90;21.40;;;;;;5133466;27;20893;-54
2023/05/10 11:05:00;;;;;;;4.00;3.57;;;26.10;21.70;;;;;;5133213;27;20484;-54
2023/05/10 11:07:26;;;;;;;5.93;3.97;;;26.10;22.00;;;;;;5133657;27;20486;-52
2023/05/10 11:09:52;;;;;;;7.07;4.00;;;26.20;21.40;;;;;;5133224;27;20514;-55
2023/05/10 11:12:18;;;;;;;23.53;20.37;;;26.20;21.90;;;;;;5133484;27;20405;-55
2023/05/10 11:14:49;;;;;;;51.07;45.03;;;26.30;22.50;;;;;;5132945;27;20220;-52
2023/05/10 11:17:28;;;;;;;4.57;4.03;;;26.40;22.50;;;;;;5133244;27;20662;-55
2023/05/10 11:20:08;;;;;;;6.97;4.90;;;26.50;21.90;;;;;;5133024;27;20530;-54
2023/05/10 11:22:52;;;;;;;22.83;17.07;;;26.60;21.90;;;;;;5133649;27;20384;-51
2023/05/10 11:25:18;;;;;;;4.90;4.40;;;26.70;21.60;;;;;;5133107;27;20388;-52
2023/05/10 11:27:45;;;;;;;5.03;4.53;;;26.70;21.90;;;;;;5133138;27;20457;-54
2023/05/10 11:30:11;;;;;;;4.60;4.20;;;26.90;21.90;;;;;;5132962;27;20428;-54
2023/05/10 11:32:38;;;;;;;4.53;3.63;;;27.10;21.80;;;;;;5133129;27;20747;-50
2023/05/10 11:35:09;;;;;;;4.10;3.40;;;27.30;22.40;;;;;;5132774;27;20480;-53
2023/05/10 11:37:35;;;;;;;4.40;3.83;;;27.50;21.70;;;;;;5123663;27;20827;-54
2023/05/10 11:40:02;;;;;;;7.20;5.20;;;27.60;20.90;;;;;;5112091;28;20899;-52
2023/05/10 11:42:28;;;;;;;4.40;3.80;;;27.60;20.60;;;;;;5112409;27;20462;-52
2023/05/10 11:44:54;;;;;;;4.00;3.60;;;27.60;21.00;;;;;;5112321;28;20812;-51
2023/05/10 11:47:20;;;;;;;5.23;4.00;;;27.70;20.10;;;;;;5112309;28;20878;-52
2023/05/10 11:49:47;;;;;;;5.27;3.70;;;27.80;20.00;;;;;;5110451;28;20440;-54
2023/05/10 11:52:13;;;;;;;5.33;4.37;;;27.70;20.00;;;;;;5111437;28;20409;-53
2023/05/10 11:54:51;;;;;;;4.90;4.17;;;27.70;19.10;;;;;;5111019;28;20489;-52
2023/05/10 11:57:19;;;;;;;16.53;7.43;;;27.60;20.10;;;;;;5112335;28;20262;-52
2023/05/10 11:59:46;;;;;;;5.27;4.77;;;27.50;20.00;;;;;;5111902;28;20464;-52
2023/05/10 12:02:13;;;;;;;8.10;3.73;;;27.30;20.20;;;;;;5112003;28;20454;-55
2023/05/10 12:04:40;;;;;;;6.00;4.10;;;26.90;20.40;;;;;;5111776;28;20420;-52
2023/05/10 12:07:06;;;;;;;5.60;3.90;;;26.90;20.30;;;;;;5112079;28;20413;-52
2023/05/10 12:09:32;;;;;;;4.47;4.07;;;26.80;20.20;;;;;;5111291;28;20859;-54
2023/05/10 12:11:57;;;;;;;3.57;3.27;;;26.80;20.10;;;;;;5110466;28;20876;-53
2023/05/10 12:14:24;;;;;;;8.50;4.00;;;26.80;20.90;;;;;;5111707;28;20224;-51
2023/05/10 12:16:50;;;;;;;5.00;3.90;;;26.90;20.80;;;;;;5111799;28;20625;-55
2023/05/10 12:19:20;;;;;;;6.73;3.57;;;27.00;21.40;;;;;;5111778;28;20449;-54
2023/05/10 12:21:46;;;;;;;6.80;3.93;;;27.00;20.30;;;;;;5111847;28;20428;-51
2023/05/10 12:24:13;;;;;;;4.30;3.90;;;27.00;20.50;;;;;;5112010;28;20415;-54
2023/05/10 12:26:39;;;;;;;4.90;4.43;;;27.20;20.20;;;;;;5111869;28;20480;-52
2023/05/10 12:29:18;;;;;;;8.27;5.47;;;27.40;20.90;;;;;;5111760;28;20431;-52
2023/05/10 12:32:04;;;;;;;5.10;3.53;;;27.40;20.00;;;;;;5111972;28;20414;-55
2023/05/10 12:34:32;;;;;;;3.50;3.20;;;27.40;21.00;;;;;;5111200;28;20417;-52
2023/05/10 12:36:58;;;;;;;4.07;3.60;;;27.70;21.00;;;;;;5111637;28;20397;-52
2023/05/10 12:39:24;;;;;;;4.00;3.60;;;27.90;20.40;;;;;;5111247;28;20521;-55
2023/05/10 12:41:51;;;;;;;6.70;4.20;;;28.10;21.00;;;;;;5111937;28;20817;-52
2023/05/10 12:44:17;;;;;;;4.20;3.80;;;28.20;21.00;;;;;;5111882;28;20433;-53
2023/05/10 12:46:43;;;;;;;5.03;4.57;;;28.30;20.20;;;;;;5113395;28;20930;-54
2023/05/10 12:49:08;;;;;;;4.70;4.20;;;28.40;21.10;;;;;;5115298;28;20419;-52
2023/05/10 12:51:34;;;;;;;5.00;3.73;;;28.30;19.40;;;;;;5115350;28;20180;-54
2023/05/10 12:54:00;;;;;;;4.37;3.90;;;28.30;19.70;;;;;;5115284;28;20636;-54
2023/05/10 12:56:26;;;;;;;4.10;3.80;;;28.20;19.50;;;;;;5114790;28;20171;-52
2023/05/10 12:58:51;;;;;;;6.47;4.00;;;28.10;20.20;;;;;;5114022;28;20190;-52
2023/05/10 13:01:17;;;;;;;4.77;3.60;;;28.10;20.30;;;;;;5113976;28;20183;-54
2023/05/10 13:03:43;;;;;;;5.47;4.33;;;28.00;21.10;;;;;;5114092;28;20209;-55
2023/05/10 13:06:09;;;;;;;7.47;6.10;;;28.00;19.40;;;;;;5114347;27;20166;-54